Time;durP1;ratioP1;P1;durP2;ratioP2;P2;SDS_P1;SDS_P2;PMS_P1;PMS_P2;Temp;Humidity;BMP_temperature;BMP_pressure;BME280_temperature;BME280_humidity;BME280_pressure;Samples;Min_cycle;Max_cycle;Signal;HPM_P1;HPM_P2
2021/06/26 00:00:28;;;;;;;26.88;15.52;;;;;;;23.74;70.14;99806.63;5089979;28;20039;-22
2021/06/26 00:02:54;;;;;;;23.33;15.20;;;;;;;23.79;70.44;99803.81;5071565;28;20423;-22
2021/06/26 00:05:19;;;;;;;29.90;15.40;;;;;;;23.91;68.91;99789.59;5089657;28;20036;-22
2021/06/26 00:07:45;;;;;;;28.33;14.65;;;;;;;23.41;71.89;99804.19;5089188;28;20040;-22
2021/06/26 00:10:11;;;;;;;27.92;14.52;;;;;;;23.18;71.97;99790.63;5089699;28;20041;-22
2021/06/26 00:12:36;;;;;;;26.25;14.68;;;;;;;23.45;71.52;99811.44;5089679;28;20105;-22
2021/06/26 00:15:04;;;;;;;29.90;14.75;;;;;;;23.82;70.89;99816.78;5089644;28;20443;-22
2021/06/26 00:17:29;;;;;;;31.02;15.18;;;;;;;23.73;70.15;99811.28;5089457;28;20040;-22
2021/06/26 00:19:57;;;;;;;29.83;14.98;;;;;;;23.59;71.25;99811.34;5089879;28;20807;-22
2021/06/26 00:22:22;;;;;;;31.33;15.05;;;;;;;23.70;70.03;99821.97;5089712;28;20823;-21
2021/06/26 00:24:48;;;;;;;31.35;14.73;;;;;;;23.77;70.46;99816.94;5071557;28;20097;-22
2021/06/26 00:27:13;;;;;;;25.58;14.70;;;;;;;23.72;70.70;99817.03;5089233;28;20081;-22
2021/06/26 00:29:39;;;;;;;23.88;13.30;;;;;;;23.46;71.83;99823.94;5089308;28;20411;-22
2021/06/26 00:32:05;;;;;;;32.42;14.35;;;;;;;23.50;71.06;99815.13;5089281;28;20388;-22
2021/06/26 00:34:30;;;;;;;28.15;15.10;;;;;;;23.20;73.19;99815.59;5089214;28;20016;-22
2021/06/26 00:36:56;;;;;;;26.60;13.55;;;;;;;23.55;70.06;99815.00;5071246;28;20020;-22
2021/06/26 00:39:21;;;;;;;24.75;14.93;;;;;;;23.76;70.26;99815.28;5089059;28;20039;-22
2021/06/26 00:41:46;;;;;;;23.75;13.80;;;;;;;23.74;69.69;99806.63;5088878;28;20040;-22
2021/06/26 00:44:12;;;;;;;25.70;14.50;;;;;;;23.79;70.21;99831.84;5089023;28;20476;-22
2021/06/26 00:46:37;;;;;;;29.95;14.90;;;;;;;23.96;69.13;99824.84;5070656;28;20035;-22
2021/06/26 00:49:03;;;;;;;27.00;14.13;;;;;;;23.84;68.11;99817.28;5089161;28;20039;-22
2021/06/26 00:51:29;;;;;;;24.63;14.27;;;;;;;23.84;69.51;99825.44;5070817;28;20489;-22
2021/06/26 00:53:54;;;;;;;29.38;14.82;;;;;;;23.76;69.70;99807.09;5088898;28;20028;-22
2021/06/26 00:56:20;;;;;;;24.08;14.00;;;;;;;23.44;71.25;99815.28;5089224;28;20043;-22
2021/06/26 00:58:45;;;;;;;25.85;14.70;;;;;;;23.14;72.46;99803.22;5054275;28;20031;-22
2021/06/26 01:01:11;;;;;;;26.40;16.05;;;;;;;23.80;71.54;99817.13;5070402;28;20040;-21
2021/06/26 01:03:37;;;;;;;29.02;14.63;;;;;;;23.98;69.33;99823.41;5088556;28;20035;-21
2021/06/26 01:06:03;;;;;;;29.35;14.32;;;;;;;23.83;70.20;99826.56;5088510;28;20059;-22
2021/06/26 01:08:28;;;;;;;25.52;15.20;;;;;;;23.97;68.91;99827.28;5088488;28;20141;-22
2021/06/26 01:10:54;;;;;;;29.17;15.68;;;;;;;23.77;69.37;99827.81;5070363;28;20403;-22
2021/06/26 01:13:19;;;;;;;30.83;14.32;;;;;;;23.66;69.42;99827.25;5088437;28;20039;-21
2021/06/26 01:15:45;;;;;;;24.08;14.10;;;;;;;23.46;68.45;99809.53;5069573;28;20042;-22
2021/06/26 01:18:10;;;;;;;26.27;14.85;;;;;;;23.25;71.34;99801.88;5088503;28;20031;-22
2021/06/26 01:20:36;;;;;;;22.63;14.00;;;;;;;22.70;73.43;99796.63;5088473;28;20032;-22
2021/06/26 01:23:02;;;;;;;24.70;14.63;;;;;;;22.85;72.89;99788.09;5070149;28;20031;-22
2021/06/26 01:25:28;;;;;;;27.08;14.40;;;;;;;22.46;74.30;99762.34;5088303;28;20471;-22
2021/06/26 01:27:55;;;;;;;33.80;14.57;;;;;;;22.60;73.98;99769.69;5087736;28;20802;-22
2021/06/26 01:30:33;;;;;;;27.48;13.65;;;;;;;22.35;74.60;99784.59;5088081;28;20084;-22
2021/06/26 01:32:59;;;;;;;22.17;13.98;;;;;;;22.49;72.99;99795.47;5088227;28;20039;-22
2021/06/26 01:35:25;;;;;;;24.33;14.63;;;;;;;22.62;72.13;99791.91;5088191;28;20028;-22
2021/06/26 01:37:50;;;;;;;22.45;14.88;;;;;;;22.53;71.67;99780.94;5087815;28;20542;-22
2021/06/26 01:40:18;;;;;;;28.33;15.45;;;;;;;22.81;71.50;99789.84;5053408;28;20032;-22
2021/06/26 01:42:43;;;;;;;;;;;;;;;23.02;69.83;99795.63;5088428;28;20410;-22
2021/06/26 01:45:09;;;;;;;27.73;16.27;;;;;;;23.13;69.84;99793.47;5087954;28;20433;-22
2021/06/26 01:47:34;;;;;;;28.08;15.75;;;;;;;23.02;70.74;99787.47;5088050;28;20113;-22
2021/06/26 01:50:02;;;;;;;32.58;15.90;;;;;;;22.89;70.63;99792.94;5069506;28;20031;-22
2021/06/26 01:52:28;;;;;;;27.45;16.10;;;;;;;23.04;71.55;99785.22;5087981;28;20501;-22
2021/06/26 01:54:53;;;;;;;24.63;15.80;;;;;;;23.28;69.36;99789.56;5087919;28;20036;-22
2021/06/26 01:57:19;;;;;;;26.08;15.40;;;;;;;23.05;69.86;99781.41;5069890;28;20027;-22
2021/06/26 01:59:44;;;;;;;30.30;16.33;;;;;;;23.27;70.01;99780.59;5087514;28;20031;-22
2021/06/26 02:02:09;;;;;;;27.35;16.25;;;;;;;23.51;68.60;99790.34;5088100;28;20032;-22
2021/06/26 02:04:35;;;;;;;30.90;18.75;;;;;;;23.10;70.23;99798.72;5088064;28;20040;-22
2021/06/26 02:07:00;;;;;;;29.23;17.52;;;;;;;22.61;73.13;99799.25;5087903;28;20024;-22
2021/06/26 02:09:26;;;;;;;26.33;16.13;;;;;;;22.39;73.99;99794.59;5087886;28;20064;-22
2021/06/26 02:11:52;;;;;;;24.45;13.50;;;;;;;21.60;75.60;99770.31;5087424;28;20032;-22
2021/06/26 02:14:17;;;;;;;25.67;14.57;;;;;;;21.91;76.07;99784.09;5087606;28;20124;-22
2021/06/26 02:16:43;;;;;;;23.58;14.52;;;;;;;22.26;73.92;99765.50;5087644;28;20104;-21
2021/06/26 02:19:08;;;;;;;28.65;15.52;;;;;;;21.87;75.70;99769.53;5087736;28;20036;-21
2021/06/26 02:21:34;;;;;;;34.08;14.65;;;;;;;22.03;75.52;99778.97;5087452;28;20596;-22
2021/06/26 02:23:59;;;;;;;28.88;15.07;;;;;;;22.30;73.96;99766.50;5087383;28;20036;-22
2021/06/26 02:26:25;;;;;;;28.17;16.40;;;;;;;23.07;72.68;99767.53;5087563;28;20039;-21
2021/06/26 02:28:50;;;;;;;29.33;15.80;;;;;;;22.64;73.68;99766.03;5090285;28;20032;-22
2021/06/26 02:31:16;;;;;;;23.67;13.48;;;;;;;22.19;75.89;99759.63;5092092;28;20407;-22
2021/06/26 02:33:41;;;;;;;22.60;14.63;;;;;;;21.87;76.65;99753.25;5056979;28;20036;-22
2021/06/26 02:36:07;;;;;;;31.20;16.52;;;;;;;22.51;74.83;99760.63;5091230;28;20065;-21
2021/06/26 02:38:32;;;;;;;25.30;14.88;;;;;;;22.45;74.21;99746.34;5073629;28;20422;-23
2021/06/26 02:40:58;;;;;;;32.65;15.98;;;;;;;22.50;73.45;99764.47;5092104;28;20030;-22
2021/06/26 02:43:23;;;;;;;31.95;14.23;;;;;;;22.83;72.40;99757.72;5056514;28;20039;-22
2021/06/26 02:45:49;;;;;;;30.90;14.07;;;;;;;22.81;72.25;99765.38;5072895;28;20089;-22
2021/06/26 02:48:15;;;;;;;24.42;13.65;;;;;;;22.73;72.50;99754.44;5091355;28;20020;-22
2021/06/26 02:50:41;;;;;;;31.85;14.27;;;;;;;23.37;71.01;99760.47;5091076;28;20128;-22
2021/06/26 02:53:07;;;;;;;27.23;14.40;;;;;;;22.91;72.33;99766.25;5073090;28;20627;-21
2021/06/26 02:55:32;;;;;;;34.42;14.77;;;;;;;22.73;72.53;99757.94;5091228;28;20040;-22
2021/06/26 02:57:57;;;;;;;30.60;14.20;;;;;;;22.41;73.54;99762.47;5090809;28;20028;-22
2021/06/26 03:00:23;;;;;;;27.95;13.60;;;;;;;22.62;72.63;99764.75;5091126;28;20402;-21
2021/06/26 03:02:49;;;;;;;25.83;14.13;;;;;;;22.39;73.01;99770.13;5091184;28;20031;-22
2021/06/26 03:05:14;;;;;;;26.08;13.50;;;;;;;22.19;74.09;99781.38;5091152;28;20028;-22
2021/06/26 03:07:46;;;;;;;31.60;14.45;;;;;;;22.35;74.29;99787.31;5090623;28;20046;-22
2021/06/26 03:10:12;;;;;;;28.50;14.10;;;;;;;22.66;72.94;99791.00;5073964;28;20040;-22
2021/06/26 03:12:37;;;;;;;30.50;14.93;;;;;;;23.36;71.72;99796.19;5090809;28;20032;-22
2021/06/26 03:15:03;;;;;;;33.80;14.80;;;;;;;23.54;70.62;99807.94;5090966;28;20040;-22
2021/06/26 03:17:29;;;;;;;37.55;15.13;;;;;;;23.62;69.64;99809.91;5090846;28;20510;-22
2021/06/26 03:19:54;;;;;;;29.80;14.98;;;;;;;23.92;66.81;99797.44;5090340;28;20032;-22
2021/06/26 03:22:20;;;;;;;29.27;13.93;;;;;;;23.76;67.27;99809.84;5090747;28;20039;-22
2021/06/26 03:24:45;;;;;;;32.70;13.43;;;;;;;24.01;66.09;99811.91;5090575;28;20039;-22
2021/06/26 03:27:12;;;;;;;30.83;13.63;;;;;;;24.21;65.84;99815.16;5090788;28;20020;-22
2021/06/26 03:29:38;;;;;;;34.65;12.80;;;;;;;24.41;63.09;99830.91;5091138;28;20028;-22
2021/06/26 03:32:03;;;;;;;24.73;12.15;;;;;;;24.29;64.49;99822.56;5090535;28;20039;-22
2021/06/26 03:34:29;;;;;;;31.40;13.75;;;;;;;24.34;64.73;99819.69;5090398;28;20103;-22
2021/06/26 03:36:54;;;;;;;28.25;13.88;;;;;;;24.37;64.21;99810.88;5090498;28;20024;-22
2021/06/26 03:39:20;;;;;;;28.98;14.18;;;;;;;24.28;64.29;99810.06;5090309;28;20036;-22
2021/06/26 03:41:45;;;;;;;27.77;12.75;;;;;;;24.44;64.02;99813.16;5090139;28;20486;-22
2021/06/26 03:44:11;;;;;;;25.70;14.02;;;;;;;24.34;63.96;99806.06;5090325;28;20036;-22
2021/06/26 03:46:37;;;;;;;22.75;13.23;;;;;;;24.16;65.12;99801.69;5090247;28;20024;-22
2021/06/26 03:49:03;;;;;;;30.13;15.15;;;;;;;24.34;64.59;99808.78;5090120;28;20074;-22
2021/06/26 03:51:29;;;;;;;26.65;15.55;;;;;;;24.46;63.59;99808.19;5090300;28;20059;-22
2021/06/26 03:53:54;;;;;;;30.52;14.52;;;;;;;24.42;64.17;99810.72;5089891;28;20043;-22
2021/06/26 03:56:20;;;;;;;29.17;15.25;;;;;;;24.28;64.52;99793.72;5089865;28;20020;-22
2021/06/26 03:58:45;;;;;;;27.42;15.98;;;;;;;24.42;65.29;99821.63;5072130;28;20442;-22
2021/06/26 04:01:11;;;;;;;28.05;16.02;;;;;;;24.27;64.59;99824.78;5090017;28;20032;-22
2021/06/26 04:03:36;;;;;;;27.20;14.77;;;;;;;24.14;64.90;99818.34;5089810;28;20057;-22
2021/06/26 04:06:02;;;;;;;26.58;15.00;;;;;;;24.10;64.93;99816.56;5089900;28;20070;-22
2021/06/26 04:08:27;;;;;;;25.50;15.50;;;;;;;24.30;64.98;99824.19;5089999;28;20159;-22
2021/06/26 04:10:53;;;;;;;22.45;14.70;;;;;;;24.17;66.59;99833.25;5089740;28;20031;-22
2021/06/26 04:13:18;;;;;;;27.17;16.42;;;;;;;24.51;65.53;99834.50;5089823;28;20032;-22
2021/06/26 04:15:44;;;;;;;23.17;17.35;;;;;;;24.44;65.86;99835.75;5089498;28;20031;-22
2021/06/26 04:18:09;;;;;;;29.60;17.42;;;;;;;24.34;66.84;99835.25;5089625;28;20032;-22
2021/06/26 04:20:35;;;;;;;31.20;19.83;;;;;;;24.16;67.87;99845.28;5089694;28;20032;-22
2021/06/26 04:23:00;;;;;;;24.60;17.52;;;;;;;23.89;69.32;99844.38;5089532;28;20036;-22
2021/06/26 04:25:27;;;;;;;33.50;18.08;;;;;;;24.02;69.35;99848.09;5089423;28;20396;-22
2021/06/26 04:27:52;;;;;;;25.05;16.42;;;;;;;24.13;67.92;99832.28;5089331;28;20032;-22
2021/06/26 04:30:19;;;;;;;28.02;17.40;;;;;;;24.25;68.55;99835.22;5089312;28;20115;-22
2021/06/26 04:32:44;;;;;;;25.85;17.92;;;;;;;24.37;69.16;99835.41;5089292;28;20032;-22
2021/06/26 04:35:11;;;;;;;25.73;17.55;;;;;;;24.65;67.80;99840.63;5089403;28;20403;-22
2021/06/26 04:37:37;;;;;;;27.48;17.90;;;;;;;24.83;67.38;99831.34;5089193;28;20073;-22
2021/06/26 04:40:03;;;;;;;29.98;22.00;;;;;;;24.74;66.80;99816.88;5088919;28;20032;-22
2021/06/26 04:42:29;;;;;;;25.48;15.50;;;;;;;25.01;64.59;99837.63;5089149;28;20028;-22
2021/06/26 04:44:54;;;;;;;24.58;15.02;;;;;;;24.88;64.86;99843.22;5089253;28;20035;-22
2021/06/26 04:47:20;;;;;;;33.25;18.10;;;;;;;25.10;63.90;99848.50;5089085;28;20450;-22
2021/06/26 04:49:45;;;;;;;33.60;17.33;;;;;;;25.47;62.23;99859.91;5089067;28;20028;-22
2021/06/26 04:52:11;;;;;;;29.02;14.48;;;;;;;25.55;62.81;99856.34;5088403;28;20032;-22
2021/06/26 04:54:36;;;;;;;35.20;20.70;;;;;;;25.66;62.60;99856.81;5088972;28;20051;-22
2021/06/26 04:57:02;;;;;;;55.67;32.85;;;;;;;25.63;61.64;99861.00;5088789;28;20067;-22
2021/06/26 04:59:28;;;;;;;24.33;14.38;;;;;;;25.39;62.03;99863.44;5089021;28;20016;-22
2021/06/26 05:01:53;;;;;;;26.15;13.98;;;;;;;25.23;63.28;99854.94;5070611;28;20087;-22
2021/06/26 05:04:19;;;;;;;19.63;13.60;;;;;;;25.13;63.34;99839.69;5088694;28;20032;-22
2021/06/26 05:06:45;;;;;;;33.30;21.02;;;;;;;25.39;65.32;99852.53;5088649;28;20419;-21
2021/06/26 05:09:10;;;;;;;29.80;19.10;;;;;;;24.81;68.08;99852.69;5070161;28;20060;-22
2021/06/26 05:11:36;;;;;;;32.92;22.40;;;;;;;24.62;67.90;99843.97;5088693;28;20047;-22
2021/06/26 05:14:01;;;;;;;25.80;16.33;;;;;;;24.79;66.90;99863.09;5088365;28;20043;-22
2021/06/26 05:16:27;;;;;;;28.05;17.40;;;;;;;24.98;66.60;99872.91;5088530;28;20028;-22
2021/06/26 05:18:52;;;;;;;25.00;15.32;;;;;;;24.86;66.33;99879.00;5088558;28;20047;-22
2021/06/26 05:21:19;;;;;;;25.67;16.33;;;;;;;24.68;67.37;99848.16;5088631;28;20039;-22
2021/06/26 05:23:44;;;;;;;31.75;19.35;;;;;;;25.17;66.66;99867.13;5088177;28;20452;-22
2021/06/26 05:26:10;;;;;;;33.70;17.60;;;;;;;25.17;66.32;99837.09;5088833;28;20035;-22
2021/06/26 05:28:36;;;;;;;32.20;19.80;;;;;;;25.51;66.72;99860.06;5088461;28;20039;-22
2021/06/26 05:31:02;;;;;;;29.13;16.80;;;;;;;25.31;65.86;99862.31;5070426;28;20093;-22
2021/06/26 05:33:28;;;;;;;31.67;16.88;;;;;;;24.96;66.87;99866.97;5088664;28;20035;-22
2021/06/26 05:35:53;;;;;;;26.65;17.73;;;;;;;24.73;67.40;99848.03;5088002;28;20024;-22
2021/06/26 05:38:19;;;;;;;28.15;18.35;;;;;;;24.85;67.27;99866.50;5088262;28;20035;-22
2021/06/26 05:40:44;;;;;;;30.83;17.77;;;;;;;24.90;67.25;99881.88;5088255;28;20024;-22
2021/06/26 05:43:10;;;;;;;33.63;17.67;;;;;;;24.74;67.72;99871.44;5070390;28;20035;-22
2021/06/26 05:45:35;;;;;;;36.80;19.13;;;;;;;24.63;68.77;99860.03;5088024;28;20035;-22
2021/06/26 05:48:00;;;;;;;35.33;19.05;;;;;;;24.79;68.90;99856.84;5087650;28;20036;-22
2021/06/26 05:50:26;;;;;;;32.15;17.83;;;;;;;24.53;68.31;99848.63;5069861;28;20035;-22
2021/06/26 05:52:53;;;;;;;30.63;17.90;;;;;;;24.84;67.94;99860.22;5088046;28;20032;-22
2021/06/26 05:55:19;;;;;;;29.00;17.30;;;;;;;24.54;69.32;99861.13;5088009;28;20024;-22
2021/06/26 05:57:44;;;;;;;31.70;17.55;;;;;;;24.86;68.52;99859.91;5087722;28;20472;-22
2021/06/26 06:00:11;;;;;;;32.97;16.42;;;;;;;24.83;67.31;99861.34;5087990;28;20028;-22
2021/06/26 06:02:36;;;;;;;29.75;17.20;;;;;;;24.77;68.11;99854.44;5087552;28;20039;-22
2021/06/26 06:05:02;;;;;;;34.67;17.77;;;;;;;24.77;67.31;99868.06;5088103;28;20032;-23
2021/06/26 06:07:28;;;;;;;30.05;17.38;;;;;;;24.67;68.09;99852.03;5087707;28;20040;-22
2021/06/26 06:09:53;;;;;;;29.80;17.15;;;;;;;24.68;69.35;99872.69;5087597;28;20430;-22
2021/06/26 06:12:19;;;;;;;32.80;17.20;;;;;;;24.56;70.63;99864.34;5069739;28;20035;-22
2021/06/26 06:14:44;;;;;;;30.13;18.05;;;;;;;24.43;71.04;99866.84;5087855;28;20039;-22
2021/06/26 06:17:10;;;;;;;30.50;17.27;;;;;;;24.17;72.31;99864.06;5087596;28;20042;-22
2021/06/26 06:19:35;;;;;;;31.75;17.70;;;;;;;24.29;71.57;99877.06;5087732;28;20043;-22
2021/06/26 06:22:07;;;;;;;27.05;16.90;;;;;;;24.96;69.17;99903.22;5087395;28;20042;-22
2021/06/26 06:24:33;;;;;;;27.83;17.75;;;;;;;25.35;67.70;99906.97;5087860;28;20036;-22
2021/06/26 06:26:58;;;;;;;32.38;17.30;;;;;;;25.51;66.66;99926.38;5087759;28;20187;-22
2021/06/26 06:29:24;;;;;;;35.13;20.80;;;;;;;25.67;66.74;99923.97;5087647;28;20084;-22
2021/06/26 06:31:49;;;;;;;32.72;18.67;;;;;;;25.54;67.08;99920.31;5087340;28;20471;-22
2021/06/26 06:34:15;;;;;;;29.42;17.52;;;;;;;25.33;66.75;99952.88;5087743;28;20032;-22
2021/06/26 06:36:40;;;;;;;31.55;17.02;;;;;;;25.47;68.48;99969.09;5087623;28;20032;-22
2021/06/26 06:39:05;;;;;;;28.63;17.52;;;;;;;25.46;67.88;99981.16;5087654;28;20472;-22
2021/06/26 06:41:31;;;;;;;41.22;25.90;;;;;;;25.04;68.69;99976.09;5087539;28;20031;-22
2021/06/26 06:43:56;;;;;;;28.75;17.58;;;;;;;24.74;69.81;99996.88;5087168;28;20039;-22
2021/06/26 06:46:22;;;;;;;28.88;15.98;;;;;;;24.65;70.29;100013.19;5087584;28;20093;-22
2021/06/26 06:48:47;;;;;;;27.80;16.05;;;;;;;24.60;70.58;100007.91;5087511;28;20039;-22
2021/06/26 06:51:14;;;;;;;29.58;15.98;;;;;;;24.72;69.65;100009.22;5087886;28;20747;-22
2021/06/26 06:53:39;;;;;;;26.67;15.50;;;;;;;24.90;68.56;100015.53;5069741;28;20830;-22
2021/06/26 06:56:05;;;;;;;32.35;16.25;;;;;;;24.83;68.64;100010.56;5087399;28;20028;-22
2021/06/26 06:58:30;;;;;;;33.67;16.10;;;;;;;25.04;67.52;100010.78;5087278;28;20032;-22
2021/06/26 07:00:55;;;;;;;26.55;15.43;;;;;;;25.31;67.55;100014.38;5087396;28;20036;-22
2021/06/26 07:03:21;;;;;;;22.85;15.38;;;;;;;25.32;67.39;100010.53;5087228;28;20028;-22
2021/06/26 07:05:46;;;;;;;29.55;15.52;;;;;;;25.30;66.89;100012.78;5068785;28;20089;-22
2021/06/26 07:08:12;;;;;;;23.58;14.55;;;;;;;25.40;66.47;100017.94;5087049;28;20048;-22
2021/06/26 07:10:37;;;;;;;25.20;15.50;;;;;;;25.37;66.84;100034.94;5087389;28;20430;-22
2021/06/26 07:13:03;;;;;;;32.50;16.08;;;;;;;25.38;66.73;100031.09;5087674;28;20097;-22
2021/06/26 07:15:28;;;;;;;34.15;14.88;;;;;;;25.56;66.82;100032.72;5090488;28;20399;-22
2021/06/26 07:17:54;;;;;;;23.55;13.18;;;;;;;25.69;66.22;100043.81;5090721;28;20032;-22
2021/06/26 07:20:19;;;;;;;21.98;10.32;;;;;;;25.36;66.37;100044.28;5091055;28;20036;-22
2021/06/26 07:22:45;;;;;;;15.45;8.38;;;;;;;25.34;66.65;100051.97;5091097;28;20407;-22
2021/06/26 07:25:10;;;;;;;19.45;9.27;;;;;;;25.21;65.95;100043.59;5091234;28;20028;-22
2021/06/26 07:27:36;;;;;;;16.00;7.85;;;;;;;25.12;66.09;100047.38;5090941;28;20036;-22
2021/06/26 07:30:03;;;;;;;16.95;6.40;;;;;;;24.96;64.43;100044.28;5090548;28;20032;-22
2021/06/26 07:32:28;;;;;;;15.43;6.88;;;;;;;24.94;63.85;100047.31;5090673;28;20104;-22
2021/06/26 07:34:54;;;;;;;16.70;5.97;;;;;;;24.91;64.74;100036.22;5090671;28;20828;-22
2021/06/26 07:37:19;;;;;;;14.45;5.10;;;;;;;24.69;62.82;100043.38;5090633;28;20036;-22
2021/06/26 07:39:44;;;;;;;15.10;5.78;;;;;;;24.79;64.10;100029.47;5090506;28;20802;-22
2021/06/26 07:42:10;;;;;;;13.88;4.93;;;;;;;24.70;63.65;100038.72;5090475;28;20028;-22
2021/06/26 07:44:35;;;;;;;13.32;5.00;;;;;;;25.05;63.92;100045.13;5090529;28;20499;-22
2021/06/26 07:47:01;;;;;;;11.07;4.70;;;;;;;25.00;62.68;100054.25;5090434;28;20464;-22
2021/06/26 07:49:27;;;;;;;9.45;4.18;;;;;;;24.96;62.37;100030.66;5072024;28;20111;-22
2021/06/26 07:51:52;;;;;;;9.85;3.80;;;;;;;25.03;62.61;100031.00;5090156;28;20039;-22
2021/06/26 07:54:18;;;;;;;9.43;3.40;;;;;;;25.19;61.54;100042.25;5090655;28;20071;-22
2021/06/26 07:56:44;;;;;;;9.77;4.00;;;;;;;25.15;60.84;100039.38;5090197;28;20040;-22
2021/06/26 07:59:10;;;;;;;9.93;3.85;;;;;;;25.55;62.66;100042.03;5089965;28;20028;-22
2021/06/26 08:01:35;;;;;;;7.70;3.47;;;;;;;25.62;60.70;100041.53;5090407;28;20114;-22
2021/06/26 08:04:02;;;;;;;9.02;4.60;;;;;;;25.95;62.35;100050.13;5090190;28;20039;-22
2021/06/26 08:06:27;;;;;;;9.88;4.32;;;;;;;25.93;59.00;100046.91;5090204;28;20905;-22
2021/06/26 08:08:53;;;;;;;7.72;3.05;;;;;;;25.23;60.96;100040.53;5089805;28;20059;-22
2021/06/26 08:11:18;;;;;;;7.40;3.42;;;;;;;25.42;63.70;100056.66;5089927;28;20024;-22
2021/06/26 08:13:44;;;;;;;7.43;3.35;;;;;;;25.73;62.18;100051.03;5089670;28;20032;-22
2021/06/26 08:16:09;;;;;;;6.45;2.70;;;;;;;25.51;61.05;100060.19;5090066;28;20032;-22
2021/06/26 08:18:35;;;;;;;9.15;2.90;;;;;;;25.70;61.25;100056.34;5089762;28;20028;-22
2021/06/26 08:21:00;;;;;;;9.02;3.45;;;;;;;25.13;63.87;100036.16;5089584;28;20028;-22
2021/06/26 08:23:25;;;;;;;9.65;2.92;;;;;;;25.59;61.69;100043.00;5089770;28;20498;-22
2021/06/26 08:25:51;;;;;;;10.15;2.83;;;;;;;25.73;60.62;100042.06;5089382;28;20093;-22
2021/06/26 08:28:16;;;;;;;7.88;2.95;;;;;;;25.82;60.14;100034.66;5089440;28;20024;-22
2021/06/26 08:30:42;;;;;;;7.15;3.03;;;;;;;25.67;60.45;100014.88;5089639;28;20032;-22
2021/06/26 08:33:07;;;;;;;7.72;2.85;;;;;;;25.86;57.16;100005.56;5089616;28;20032;-22
2021/06/26 08:35:33;;;;;;;7.18;2.53;;;;;;;25.60;58.68;100017.31;5089372;28;20043;-22
2021/06/26 08:37:58;;;;;;;7.57;3.03;;;;;;;26.00;61.42;100028.06;5089556;28;20028;-23
2021/06/26 08:40:24;;;;;;;9.32;3.03;;;;;;;26.26;55.83;100019.84;5089579;28;20880;-22
2021/06/26 08:42:50;;;;;;;7.32;2.70;;;;;;;26.50;56.79;100036.81;5089156;28;20028;-22
2021/06/26 08:45:17;;;;;;;4.60;2.55;;;;;;;26.35;58.12;100014.34;5089202;28;20055;-22
2021/06/26 08:47:45;;;;;;;7.97;3.17;;;;;;;26.32;57.79;100025.13;5088958;28;20483;-23
2021/06/26 08:50:11;;;;;;;7.80;3.60;;;;;;;25.89;57.05;100007.66;5089086;28;20114;-22
2021/06/26 08:52:36;;;;;;;6.43;2.85;;;;;;;26.13;59.87;100022.75;5089252;28;20484;-22
2021/06/26 08:55:02;;;;;;;7.22;2.88;;;;;;;26.26;59.31;100005.38;5054375;28;20078;-22
2021/06/26 08:57:29;;;;;;;7.20;3.03;;;;;;;26.81;56.54;100007.28;5089047;28;20039;-22
2021/06/26 08:59:54;;;;;;;12.00;2.85;;;;;;;26.65;55.33;100003.50;5088789;28;20058;-22
2021/06/26 09:02:21;;;;;;;7.95;3.25;;;;;;;26.44;55.87;99992.47;5088817;28;20036;-22
2021/06/26 09:04:46;;;;;;;11.43;3.03;;;;;;;26.24;55.80;99988.50;5088878;28;20036;-22
2021/06/26 09:07:12;;;;;;;9.82;2.92;;;;;;;26.56;56.00;99989.84;5088526;28;20039;-22
2021/06/26 09:09:38;;;;;;;9.43;3.17;;;;;;;26.68;55.42;99997.34;5088605;28;20055;-22
2021/06/26 09:12:07;;;;;;;7.97;2.47;;;;;;;26.93;53.84;100005.75;5088392;28;20038;-22
2021/06/26 09:14:33;;;;;;;8.02;2.40;;;;;;;27.95;53.21;99999.09;5088673;28;20043;-22
2021/06/26 09:16:59;;;;;;;9.02;3.25;;;;;;;28.26;54.90;100011.53;5088579;28;20024;-22
2021/06/26 09:19:25;;;;;;;10.88;3.10;;;;;;;28.12;49.67;100002.81;5088775;28;20028;-22
2021/06/26 09:22:10;;;;;;;6.63;2.58;;;;;;;28.58;53.46;100003.59;5088438;28;20465;-22
2021/06/26 09:24:41;;;;;;;6.15;2.40;;;;;;;28.38;49.71;99986.88;5088429;28;20119;-22
2021/06/26 09:27:07;;;;;;;9.68;2.63;;;;;;;28.01;51.37;99989.53;5088508;28;20042;-22
2021/06/26 09:29:33;;;;;;;7.07;2.50;;;;;;;28.24;51.65;99983.66;5070426;28;20437;-22
2021/06/26 09:32:03;;;;;;;8.88;2.63;;;;;;;28.57;48.55;99966.34;5088273;28;20055;-22
2021/06/26 09:34:39;;;;;;;11.73;2.55;;;;;;;28.87;49.68;99975.13;5088307;28;20459;-22
2021/06/26 09:37:06;;;;;;;7.78;2.83;;;;;;;28.67;50.25;99957.66;5087967;28;20564;-22
2021/06/26 09:39:36;;;;;;;6.80;2.70;;;;;;;28.25;51.51;99971.53;5088395;28;20035;-22
2021/06/26 09:42:06;;;;;;;7.38;2.78;;;;;;;28.44;51.12;99963.56;5088367;28;20375;-22
2021/06/26 09:44:32;;;;;;;9.57;2.53;;;;;;;28.44;49.63;99957.25;5088450;28;20036;-22
2021/06/26 09:46:57;;;;;;;9.32;2.67;;;;;;;28.70;49.29;99943.22;5070113;28;20067;-22
2021/06/26 09:49:29;;;;;;;7.82;2.70;;;;;;;29.42;46.84;99945.41;5088288;28;20248;-22
2021/06/26 09:51:58;;;;;;;8.73;2.63;;;;;;;30.20;47.95;99945.97;5070026;28;20407;-22
2021/06/26 09:54:27;;;;;;;8.55;2.50;;;;;;;29.73;48.24;99942.00;5088090;28;20169;-22
2021/06/26 09:56:52;;;;;;;9.43;2.78;;;;;;;29.92;48.38;99935.03;5088067;28;20034;-22
2021/06/26 09:59:18;;;;;;;11.63;2.90;;;;;;;30.27;46.18;99954.38;5088209;28;20036;-22
2021/06/26 10:01:45;;;;;;;7.53;2.70;;;;;;;29.79;44.95;99901.28;5087921;28;20024;-22
2021/06/26 10:04:12;;;;;;;10.18;2.85;;;;;;;30.48;45.35;99934.88;5087482;28;20063;-22
2021/06/26 10:06:38;;;;;;;8.63;2.45;;;;;;;30.67;42.33;99936.91;5087155;28;20028;-22
2021/06/26 10:09:05;;;;;;;7.90;2.65;;;;;;;30.50;44.01;99926.25;5066417;28;20079;-24
2021/06/26 10:11:34;;;;;;;10.05;2.85;;;;;;;30.15;45.37;99924.22;5067660;28;20028;-23
2021/06/26 10:14:01;;;;;;;8.73;2.67;;;;;;;30.41;48.89;99918.22;5067550;28;20036;-22
2021/06/26 10:16:28;;;;;;;7.28;2.80;;;;;;;30.29;45.98;99926.53;5066408;28;20075;-22
2021/06/26 10:18:53;;;;;;;5.57;2.28;;;;;;;30.28;45.16;99924.91;5067864;28;20040;-22
2021/06/26 10:21:19;;;;;;;6.72;2.30;;;;;;;30.15;40.60;99921.47;5066394;28;20173;-22
2021/06/26 10:23:44;;;;;;;11.15;2.50;;;;;;;30.67;42.45;99917.63;5067328;28;20408;-22
2021/06/26 10:26:10;;;;;;;5.75;2.13;;;;;;;31.04;40.49;99911.78;5066371;28;20032;-22
2021/06/26 10:28:46;;;;;;;8.45;2.17;;;;;;;30.34;39.79;99905.09;5067613;28;20029;-22
2021/06/26 10:31:13;;;;;;;7.22;2.35;;;;;;;30.96;41.65;99910.03;5066279;28;20024;-21
2021/06/26 10:33:39;;;;;;;7.97;2.40;;;;;;;31.36;38.64;99906.13;5067722;28;20033;-22
2021/06/26 10:36:05;;;;;;;5.65;1.88;;;;;;;31.53;39.86;99886.44;5067196;28;20070;-22
2021/06/26 10:38:43;;;;;;;5.40;2.15;;;;;;;30.97;39.27;99887.63;5067322;28;20404;-22
2021/06/26 10:41:17;;;;;;;6.53;2.45;;;;;;;31.11;41.37;99895.41;5067739;28;20515;-22
2021/06/26 10:43:57;;;;;;;8.48;2.35;;;;;;;31.28;40.92;99893.38;5067053;28;20499;-22
2021/06/26 10:46:23;;;;;;;8.40;2.60;;;;;;;31.27;42.49;99891.78;5067355;28;20036;-22
2021/06/26 10:48:58;;;;;;;5.63;2.75;;;;;;;31.02;42.44;99892.06;5068098;28;20415;-21
2021/06/26 10:51:37;;;;;;;8.25;2.58;;;;;;;31.11;39.29;99884.38;5071029;28;20040;-22
2021/06/26 10:54:16;;;;;;;6.72;2.72;;;;;;;31.77;40.63;99876.22;5071074;28;20062;-22
2021/06/26 10:56:43;;;;;;;7.10;2.38;;;;;;;31.75;38.85;99879.34;5071222;28;20032;-22
2021/06/26 10:59:16;;;;;;;8.82;2.70;;;;;;;31.58;38.35;99880.59;5071275;28;20028;-22
2021/06/26 11:01:58;;;;;;;5.45;2.38;;;;;;;31.24;38.93;99863.81;5071121;28;20395;-22
2021/06/26 11:04:24;;;;;;;8.10;2.70;;;;;;;31.28;37.40;99858.34;5070908;28;20033;-22
2021/06/26 11:06:53;;;;;;;10.55;2.80;;;;;;;31.53;37.27;99856.13;5070526;28;20104;-22
2021/06/26 11:09:19;;;;;;;6.90;2.78;;;;;;;31.91;37.02;99859.91;5083822;28;20052;-22
2021/06/26 11:11:45;;;;;;;5.82;2.45;;;;;;;32.14;35.86;99850.84;5072660;28;20036;-22
2021/06/26 11:14:21;;;;;;;12.35;2.90;;;;;;;32.06;38.73;99843.63;5073013;28;20063;-22
2021/06/26 11:16:57;;;;;;;6.53;2.78;;;;;;;32.26;36.38;99836.84;5089944;28;20031;-22